createdAt,value
2022-10-22T00:16:00.225Z,10.27
2022-10-22T00:36:02.947Z,10.31
2022-10-22T00:56:05.530Z,10.17
2022-10-22T01:16:08.573Z,9.73
2022-10-22T01:36:11.067Z,9.56
2022-10-22T01:56:13.750Z,9.40
2022-10-22T02:16:16.462Z,9.47
2022-10-22T02:36:18.992Z,9.36
2022-10-22T02:56:21.578Z,9.16
2022-10-22T03:16:24.293Z,8.82
2022-10-22T03:36:26.753Z,8.53
2022-10-22T03:56:29.523Z,8.54
2022-10-22T04:16:33.882Z,8.35
2022-10-22T04:36:36.491Z,8.32
2022-10-22T04:56:39.240Z,8.33
2022-10-22T05:16:41.818Z,7.67
2022-10-22T05:36:44.628Z,7.88
2022-10-22T05:56:47.211Z,7.82
2022-10-22T06:16:49.877Z,7.97
2022-10-22T06:36:53.394Z,8.43
2022-10-22T06:56:55.954Z,9.43
2022-10-22T07:16:58.595Z,10.17
2022-10-22T07:37:01.885Z,11.63
2022-10-22T07:57:04.697Z,12.80
2022-10-22T08:17:07.142Z,13.81
2022-10-22T08:37:09.757Z,14.55
2022-10-22T08:57:12.295Z,14.81
2022-10-22T09:17:15.326Z,14.91
2022-10-22T09:37:17.778Z,15.48
2022-10-22T09:57:22.676Z,15.11
2022-10-22T10:17:25.397Z,15.21
2022-10-22T10:37:27.908Z,14.99
2022-10-22T10:57:30.613Z,15.24
2022-10-22T11:17:33.311Z,14.86
2022-10-22T11:37:36.069Z,14.76
2022-10-22T11:57:41.850Z,14.76
2022-10-22T12:17:44.779Z,14.55
2022-10-22T12:37:47.549Z,14.73
2022-10-22T12:57:50.151Z,14.49
2022-10-22T13:17:52.627Z,14.22
2022-10-22T13:37:55.371Z,14.27
2022-10-22T13:57:58.000Z,14.18
2022-10-22T14:18:00.630Z,13.88
2022-10-22T14:38:03.304Z,13.87
2022-10-22T14:58:06.017Z,13.57
2022-10-22T15:18:08.725Z,13.11
2022-10-22T15:38:11.233Z,12.98
2022-10-22T15:58:13.902Z,12.97
2022-10-22T16:18:16.339Z,12.89
2022-10-22T16:38:20.173Z,12.89
2022-10-22T16:58:22.676Z,12.77
2022-10-22T17:18:25.350Z,12.75
2022-10-22T17:38:28.338Z,12.66
2022-10-22T17:58:31.285Z,12.78
2022-10-22T18:18:33.917Z,12.65
2022-10-22T18:38:36.660Z,12.60
2022-10-22T18:58:39.655Z,12.54
2022-10-22T19:18:43.355Z,12.64
2022-10-22T19:38:46.149Z,12.67
2022-10-22T19:58:48.910Z,12.76
2022-10-22T20:18:51.534Z,12.71
2022-10-22T20:38:54.185Z,12.52
2022-10-22T20:59:05.455Z,12.59
2022-10-22T21:19:08.108Z,13.12
2022-10-22T21:39:10.796Z,13.37
2022-10-22T21:59:13.452Z,13.29
2022-10-22T22:19:16.109Z,13.39
2022-10-22T22:39:18.707Z,13.34
2022-10-22T22:59:21.422Z,13.34
2022-10-22T23:19:24.207Z,13.44
2022-10-22T23:39:26.729Z,13.41
2022-10-22T23:59:29.459Z,13.45
